Duncanville, Texas
Current Conditions -  °F | °C
As of 9:53 AM on Saturday 25 Oct 2014 (Local Time) from KRBD Reporting Station
Clear Clear  
Wind Chill: 74°   Ceiling: Unl
Heat Index: 74°   Visibility: 10mi
Dew Point: 59°   Wind: 5mph
Humidity: 59%   Direction: NA
Pressure: 30.15"   Gusts: NA
Location:  32.65°N, 96.91°W
Report Text: KRBD 251453Z VRB04KT 10SM CLR 23/15 A3015 RMK AO2 SLP203 T02330150 53013
Loading
Personal Weather Stations






























Interactive Weather Map New forecast layout! Learn more

10-Day Weather Forecast

Advertisements
Track Severe Weather on mobile